sensor_id;sensor_type;location;lat;lon;timestamp;P1;durP1;ratioP1;P2;durP2;ratioP2
18082;SDS011;9168;51.194;6.840;2023-04-24T00:00:12;2.33;;;1.23;;
18082;SDS011;9168;51.194;6.840;2023-04-24T00:02:41;1.40;;;1.00;;
18082;SDS011;9168;51.194;6.840;2023-04-24T00:05:10;3.17;;;1.02;;
18082;SDS011;9168;51.194;6.840;2023-04-24T00:07:38;3.03;;;1.05;;
18082;SDS011;9168;51.194;6.840;2023-04-24T00:10:05;5.82;;;1.27;;
18082;SDS011;9168;51.194;6.840;2023-04-24T00:12:33;3.97;;;1.40;;
18082;SDS011;9168;51.194;6.840;2023-04-24T00:15:00;1.90;;;1.20;;
18082;SDS011;9168;51.194;6.840;2023-04-24T00:17:27;2.90;;;1.10;;
18082;SDS011;9168;51.194;6.840;2023-04-24T00:19:53;3.20;;;1.38;;
18082;SDS011;9168;51.194;6.840;2023-04-24T00:22:23;4.85;;;1.55;;
18082;SDS011;9168;51.194;6.840;2023-04-24T00:24:51;2.17;;;1.13;;
18082;SDS011;9168;51.194;6.840;2023-04-24T00:27:18;3.38;;;1.23;;
18082;SDS011;9168;51.194;6.840;2023-04-24T00:29:45;2.83;;;1.40;;
18082;SDS011;9168;51.194;6.840;2023-04-24T00:32:12;3.28;;;1.30;;
18082;SDS011;9168;51.194;6.840;2023-04-24T00:34:39;5.10;;;1.38;;
18082;SDS011;9168;51.194;6.840;2023-04-24T00:37:06;2.70;;;1.35;;
18082;SDS011;9168;51.194;6.840;2023-04-24T00:39:33;4.90;;;1.70;;
18082;SDS011;9168;51.194;6.840;2023-04-24T00:42:01;4.82;;;1.70;;
18082;SDS011;9168;51.194;6.840;2023-04-24T00:44:31;3.95;;;1.40;;
18082;SDS011;9168;51.194;6.840;2023-04-24T00:46:59;2.55;;;1.50;;
18082;SDS011;9168;51.194;6.840;2023-04-24T00:49:26;3.38;;;1.10;;
18082;SDS011;9168;51.194;6.840;2023-04-24T00:51:53;3.53;;;1.52;;
18082;SDS011;9168;51.194;6.840;2023-04-24T00:54:21;2.97;;;1.35;;
18082;SDS011;9168;51.194;6.840;2023-04-24T00:56:48;2.40;;;1.58;;
18082;SDS011;9168;51.194;6.840;2023-04-24T00:59:17;5.07;;;1.40;;
18082;SDS011;9168;51.194;6.840;2023-04-24T01:01:44;3.92;;;1.63;;
18082;SDS011;9168;51.194;6.840;2023-04-24T01:04:12;5.65;;;1.27;;
18082;SDS011;9168;51.194;6.840;2023-04-24T01:06:39;3.15;;;1.33;;
18082;SDS011;9168;51.194;6.840;2023-04-24T01:09:09;3.53;;;1.35;;
18082;SDS011;9168;51.194;6.840;2023-04-24T01:11:37;3.33;;;1.48;;
18082;SDS011;9168;51.194;6.840;2023-04-24T01:14:06;7.13;;;1.80;;
18082;SDS011;9168;51.194;6.840;2023-04-24T01:16:35;4.72;;;1.65;;
18082;SDS011;9168;51.194;6.840;2023-04-24T01:19:03;6.05;;;2.03;;
18082;SDS011;9168;51.194;6.840;2023-04-24T01:21:31;6.90;;;2.92;;
18082;SDS011;9168;51.194;6.840;2023-04-24T01:24:03;7.18;;;2.75;;
18082;SDS011;9168;51.194;6.840;2023-04-24T01:26:31;10.30;;;3.15;;
18082;SDS011;9168;51.194;6.840;2023-04-24T01:28:58;11.20;;;3.28;;
18082;SDS011;9168;51.194;6.840;2023-04-24T01:31:25;8.38;;;3.63;;
18082;SDS011;9168;51.194;6.840;2023-04-24T01:33:52;11.90;;;4.80;;
18082;SDS011;9168;51.194;6.840;2023-04-24T01:36:20;9.73;;;4.50;;
18082;SDS011;9168;51.194;6.840;2023-04-24T01:38:48;11.07;;;4.80;;
18082;SDS011;9168;51.194;6.840;2023-04-24T01:41:16;10.68;;;4.32;;
18082;SDS011;9168;51.194;6.840;2023-04-24T01:43:43;12.18;;;4.78;;
18082;SDS011;9168;51.194;6.840;2023-04-24T01:46:10;10.35;;;3.80;;
18082;SDS011;9168;51.194;6.840;2023-04-24T01:48:37;12.63;;;4.28;;
18082;SDS011;9168;51.194;6.840;2023-04-24T01:51:04;10.02;;;4.47;;
18082;SDS011;9168;51.194;6.840;2023-04-24T01:53:31;13.95;;;4.40;;
18082;SDS011;9168;51.194;6.840;2023-04-24T01:55:58;10.75;;;4.45;;
18082;SDS011;9168;51.194;6.840;2023-04-24T01:58:26;15.65;;;4.57;;
18082;SDS011;9168;51.194;6.840;2023-04-24T02:00:55;13.32;;;4.53;;
18082;SDS011;9168;51.194;6.840;2023-04-24T02:03:23;14.85;;;5.22;;
18082;SDS011;9168;51.194;6.840;2023-04-24T02:05:51;12.10;;;4.90;;
18082;SDS011;9168;51.194;6.840;2023-04-24T02:08:18;14.88;;;5.63;;
18082;SDS011;9168;51.194;6.840;2023-04-24T02:10:45;11.57;;;5.80;;
18082;SDS011;9168;51.194;6.840;2023-04-24T02:13:12;13.40;;;5.75;;
18082;SDS011;9168;51.194;6.840;2023-04-24T02:15:40;10.75;;;5.93;;
18082;SDS011;9168;51.194;6.840;2023-04-24T02:18:07;10.77;;;6.00;;
18082;SDS011;9168;51.194;6.840;2023-04-24T02:20:33;16.83;;;6.05;;
18082;SDS011;9168;51.194;6.840;2023-04-24T02:23:00;10.52;;;5.60;;
18082;SDS011;9168;51.194;6.840;2023-04-24T02:25:27;13.18;;;6.72;;
18082;SDS011;9168;51.194;6.840;2023-04-24T02:27:54;14.15;;;6.32;;
18082;SDS011;9168;51.194;6.840;2023-04-24T02:30:21;13.25;;;6.25;;
18082;SDS011;9168;51.194;6.840;2023-04-24T02:32:49;12.95;;;6.47;;
18082;SDS011;9168;51.194;6.840;2023-04-24T02:35:16;16.05;;;7.53;;
18082;SDS011;9168;51.194;6.840;2023-04-24T02:37:43;17.55;;;6.72;;
18082;SDS011;9168;51.194;6.840;2023-04-24T02:40:10;16.02;;;7.60;;
18082;SDS011;9168;51.194;6.840;2023-04-24T02:42:37;15.65;;;6.70;;
18082;SDS011;9168;51.194;6.840;2023-04-24T02:45:04;11.70;;;6.72;;
18082;SDS011;9168;51.194;6.840;2023-04-24T02:47:32;15.63;;;7.68;;
18082;SDS011;9168;51.194;6.840;2023-04-24T02:50:00;20.63;;;8.48;;
18082;SDS011;9168;51.194;6.840;2023-04-24T02:52:27;17.60;;;7.65;;
18082;SDS011;9168;51.194;6.840;2023-04-24T02:54:54;14.88;;;7.90;;
18082;SDS011;9168;51.194;6.840;2023-04-24T02:57:21;14.38;;;7.60;;
18082;SDS011;9168;51.194;6.840;2023-04-24T02:59:48;19.77;;;8.15;;
18082;SDS011;9168;51.194;6.840;2023-04-24T03:02:15;14.45;;;7.47;;
18082;SDS011;9168;51.194;6.840;2023-04-24T03:04:42;15.07;;;7.80;;
18082;SDS011;9168;51.194;6.840;2023-04-24T03:07:10;19.73;;;8.18;;
18082;SDS011;9168;51.194;6.840;2023-04-24T03:09:37;24.48;;;8.55;;
18082;SDS011;9168;51.194;6.840;2023-04-24T03:12:04;16.05;;;7.75;;
18082;SDS011;9168;51.194;6.840;2023-04-24T03:14:31;19.58;;;8.52;;
18082;SDS011;9168;51.194;6.840;2023-04-24T03:16:58;16.23;;;8.23;;
18082;SDS011;9168;51.194;6.840;2023-04-24T03:19:25;16.63;;;8.23;;
18082;SDS011;9168;51.194;6.840;2023-04-24T03:21:51;19.75;;;7.80;;
18082;SDS011;9168;51.194;6.840;2023-04-24T03:24:20;18.90;;;8.02;;
18082;SDS011;9168;51.194;6.840;2023-04-24T03:26:47;17.98;;;8.23;;
18082;SDS011;9168;51.194;6.840;2023-04-24T03:29:14;15.88;;;8.05;;
18082;SDS011;9168;51.194;6.840;2023-04-24T03:31:41;24.23;;;8.85;;
18082;SDS011;9168;51.194;6.840;2023-04-24T03:34:08;18.67;;;7.90;;
18082;SDS011;9168;51.194;6.840;2023-04-24T03:36:35;18.52;;;8.10;;
18082;SDS011;9168;51.194;6.840;2023-04-24T03:39:02;18.55;;;8.32;;
18082;SDS011;9168;51.194;6.840;2023-04-24T03:41:30;20.13;;;8.27;;
18082;SDS011;9168;51.194;6.840;2023-04-24T03:43:57;17.85;;;8.48;;
18082;SDS011;9168;51.194;6.840;2023-04-24T03:46:24;14.43;;;7.72;;
18082;SDS011;9168;51.194;6.840;2023-04-24T03:48:51;22.50;;;8.07;;
18082;SDS011;9168;51.194;6.840;2023-04-24T03:51:17;20.40;;;8.45;;
18082;SDS011;9168;51.194;6.840;2023-04-24T03:53:44;17.52;;;8.18;;
18082;SDS011;9168;51.194;6.840;2023-04-24T03:56:11;16.17;;;7.50;;
18082;SDS011;9168;51.194;6.840;2023-04-24T03:58:39;18.00;;;7.72;;
18082;SDS011;9168;51.194;6.840;2023-04-24T04:01:06;15.65;;;8.05;;
18082;SDS011;9168;51.194;6.840;2023-04-24T04:03:33;17.23;;;7.43;;
18082;SDS011;9168;51.194;6.840;2023-04-24T04:06:00;18.85;;;7.93;;
18082;SDS011;9168;51.194;6.840;2023-04-24T04:08:27;17.52;;;8.05;;
18082;SDS011;9168;51.194;6.840;2023-04-24T04:10:54;19.48;;;8.23;;
18082;SDS011;9168;51.194;6.840;2023-04-24T04:13:21;19.27;;;7.85;;
18082;SDS011;9168;51.194;6.840;2023-04-24T04:15:49;17.00;;;8.20;;
18082;SDS011;9168;51.194;6.840;2023-04-24T04:18:16;16.58;;;7.55;;
18082;SDS011;9168;51.194;6.840;2023-04-24T04:20:43;13.15;;;7.22;;
18082;SDS011;9168;51.194;6.840;2023-04-24T04:23:10;12.48;;;7.05;;
18082;SDS011;9168;51.194;6.840;2023-04-24T04:25:36;18.10;;;7.88;;
18082;SDS011;9168;51.194;6.840;2023-04-24T04:28:03;16.20;;;8.32;;
18082;SDS011;9168;51.194;6.840;2023-04-24T04:30:30;14.98;;;7.18;;
18082;SDS011;9168;51.194;6.840;2023-04-24T04:32:58;27.48;;;8.18;;
18082;SDS011;9168;51.194;6.840;2023-04-24T04:35:26;14.70;;;7.38;;
18082;SDS011;9168;51.194;6.840;2023-04-24T04:37:53;13.75;;;7.35;;
18082;SDS011;9168;51.194;6.840;2023-04-24T04:40:21;14.68;;;7.18;;
18082;SDS011;9168;51.194;6.840;2023-04-24T04:42:48;18.02;;;8.00;;
18082;SDS011;9168;51.194;6.840;2023-04-24T04:45:18;14.27;;;7.47;;
18082;SDS011;9168;51.194;6.840;2023-04-24T04:47:45;20.67;;;8.10;;
18082;SDS011;9168;51.194;6.840;2023-04-24T04:50:14;16.20;;;8.00;;
18082;SDS011;9168;51.194;6.840;2023-04-24T04:52:41;14.23;;;6.97;;
18082;SDS011;9168;51.194;6.840;2023-04-24T04:55:08;16.05;;;7.63;;
18082;SDS011;9168;51.194;6.840;2023-04-24T04:57:36;13.70;;;7.00;;
18082;SDS011;9168;51.194;6.840;2023-04-24T05:00:03;16.40;;;8.00;;
18082;SDS011;9168;51.194;6.840;2023-04-24T05:02:32;20.75;;;7.63;;
18082;SDS011;9168;51.194;6.840;2023-04-24T05:04:59;19.67;;;6.35;;
18082;SDS011;9168;51.194;6.840;2023-04-24T05:07:27;15.18;;;6.90;;
18082;SDS011;9168;51.194;6.840;2023-04-24T05:09:54;13.13;;;6.47;;
18082;SDS011;9168;51.194;6.840;2023-04-24T05:12:21;12.85;;;5.97;;
18082;SDS011;9168;51.194;6.840;2023-04-24T05:14:47;17.77;;;6.78;;
18082;SDS011;9168;51.194;6.840;2023-04-24T05:17:14;12.98;;;5.88;;
18082;SDS011;9168;51.194;6.840;2023-04-24T05:19:42;14.32;;;6.55;;
18082;SDS011;9168;51.194;6.840;2023-04-24T05:22:09;13.48;;;6.50;;
18082;SDS011;9168;51.194;6.840;2023-04-24T05:24:38;10.98;;;6.25;;
18082;SDS011;9168;51.194;6.840;2023-04-24T05:27:04;12.35;;;5.78;;
18082;SDS011;9168;51.194;6.840;2023-04-24T05:29:32;16.70;;;6.35;;
18082;SDS011;9168;51.194;6.840;2023-04-24T05:31:59;12.70;;;6.82;;
18082;SDS011;9168;51.194;6.840;2023-04-24T05:34:26;15.05;;;6.70;;
18082;SDS011;9168;51.194;6.840;2023-04-24T05:36:53;17.50;;;7.20;;
18082;SDS011;9168;51.194;6.840;2023-04-24T05:39:20;13.63;;;6.55;;
18082;SDS011;9168;51.194;6.840;2023-04-24T05:41:48;14.95;;;6.93;;
18082;SDS011;9168;51.194;6.840;2023-04-24T05:44:15;14.68;;;7.03;;
18082;SDS011;9168;51.194;6.840;2023-04-24T05:46:42;15.02;;;7.60;;
18082;SDS011;9168;51.194;6.840;2023-04-24T05:49:09;12.32;;;7.32;;
18082;SDS011;9168;51.194;6.840;2023-04-24T05:51:35;16.13;;;7.32;;
18082;SDS011;9168;51.194;6.840;2023-04-24T05:54:04;17.45;;;7.63;;
18082;SDS011;9168;51.194;6.840;2023-04-24T05:56:31;14.77;;;7.28;;
18082;SDS011;9168;51.194;6.840;2023-04-24T05:58:59;17.23;;;8.27;;
18082;SDS011;9168;51.194;6.840;2023-04-24T06:01:26;14.82;;;7.63;;
18082;SDS011;9168;51.194;6.840;2023-04-24T06:03:53;12.98;;;7.20;;
18082;SDS011;9168;51.194;6.840;2023-04-24T06:06:20;11.57;;;6.43;;
18082;SDS011;9168;51.194;6.840;2023-04-24T06:08:47;13.50;;;6.85;;
18082;SDS011;9168;51.194;6.840;2023-04-24T06:11:13;13.68;;;6.05;;
18082;SDS011;9168;51.194;6.840;2023-04-24T06:13:40;15.68;;;7.65;;
18082;SDS011;9168;51.194;6.840;2023-04-24T06:16:09;16.40;;;6.28;;
18082;SDS011;9168;51.194;6.840;2023-04-24T06:18:36;11.82;;;6.10;;
18082;SDS011;9168;51.194;6.840;2023-04-24T06:21:03;14.30;;;6.20;;
18082;SDS011;9168;51.194;6.840;2023-04-24T06:23:30;13.38;;;5.82;;
18082;SDS011;9168;51.194;6.840;2023-04-24T06:25:57;14.13;;;5.32;;
18082;SDS011;9168;51.194;6.840;2023-04-24T06:28:25;12.60;;;5.60;;
18082;SDS011;9168;51.194;6.840;2023-04-24T06:30:52;13.10;;;5.60;;
18082;SDS011;9168;51.194;6.840;2023-04-24T06:33:20;10.23;;;5.30;;
18082;SDS011;9168;51.194;6.840;2023-04-24T06:35:47;12.57;;;5.85;;
18082;SDS011;9168;51.194;6.840;2023-04-24T06:38:14;10.88;;;5.38;;
18082;SDS011;9168;51.194;6.840;2023-04-24T06:40:41;12.65;;;5.10;;
18082;SDS011;9168;51.194;6.840;2023-04-24T06:43:08;10.40;;;5.20;;
18082;SDS011;9168;51.194;6.840;2023-04-24T06:45:36;10.32;;;5.05;;
18082;SDS011;9168;51.194;6.840;2023-04-24T06:48:04;12.52;;;4.95;;
18082;SDS011;9168;51.194;6.840;2023-04-24T06:50:32;12.77;;;4.88;;
18082;SDS011;9168;51.194;6.840;2023-04-24T06:52:59;9.32;;;4.93;;
18082;SDS011;9168;51.194;6.840;2023-04-24T06:55:26;12.77;;;5.22;;
18082;SDS011;9168;51.194;6.840;2023-04-24T06:57:53;10.18;;;5.22;;
18082;SDS011;9168;51.194;6.840;2023-04-24T07:00:20;8.52;;;4.68;;
18082;SDS011;9168;51.194;6.840;2023-04-24T07:02:49;9.68;;;4.97;;
18082;SDS011;9168;51.194;6.840;2023-04-24T07:05:16;11.68;;;5.55;;
18082;SDS011;9168;51.194;6.840;2023-04-24T07:07:46;13.52;;;4.57;;
18082;SDS011;9168;51.194;6.840;2023-04-24T07:10:14;10.30;;;5.20;;
18082;SDS011;9168;51.194;6.840;2023-04-24T07:12:41;12.43;;;5.25;;
18082;SDS011;9168;51.194;6.840;2023-04-24T07:15:08;9.85;;;4.35;;
18082;SDS011;9168;51.194;6.840;2023-04-24T07:17:36;7.85;;;3.63;;
18082;SDS011;9168;51.194;6.840;2023-04-24T07:20:08;6.82;;;3.33;;
18082;SDS011;9168;51.194;6.840;2023-04-24T07:22:37;7.47;;;2.85;;
18082;SDS011;9168;51.194;6.840;2023-04-24T07:25:05;6.82;;;3.00;;
18082;SDS011;9168;51.194;6.840;2023-04-24T07:27:33;6.47;;;2.95;;
18082;SDS011;9168;51.194;6.840;2023-04-24T07:30:01;5.50;;;2.60;;
18082;SDS011;9168;51.194;6.840;2023-04-24T07:32:29;12.18;;;2.92;;
18082;SDS011;9168;51.194;6.840;2023-04-24T07:34:55;10.57;;;2.97;;
18082;SDS011;9168;51.194;6.840;2023-04-24T07:37:22;5.67;;;2.37;;
18082;SDS011;9168;51.194;6.840;2023-04-24T07:39:49;9.00;;;1.83;;
18082;SDS011;9168;51.194;6.840;2023-04-24T07:42:18;4.10;;;1.33;;
18082;SDS011;9168;51.194;6.840;2023-04-24T07:44:45;6.57;;;1.10;;
18082;SDS011;9168;51.194;6.840;2023-04-24T07:47:12;5.70;;;0.77;;
18082;SDS011;9168;51.194;6.840;2023-04-24T07:49:40;2.45;;;0.50;;
18082;SDS011;9168;51.194;6.840;2023-04-24T07:52:08;4.57;;;0.85;;
18082;SDS011;9168;51.194;6.840;2023-04-24T07:54:35;4.30;;;0.70;;
18082;SDS011;9168;51.194;6.840;2023-04-24T07:57:02;3.00;;;0.75;;
18082;SDS011;9168;51.194;6.840;2023-04-24T07:59:33;3.57;;;1.07;;
18082;SDS011;9168;51.194;6.840;2023-04-24T08:02:00;3.28;;;0.90;;
18082;SDS011;9168;51.194;6.840;2023-04-24T08:04:27;1.65;;;0.70;;
18082;SDS011;9168;51.194;6.840;2023-04-24T08:06:54;2.20;;;0.73;;
18082;SDS011;9168;51.194;6.840;2023-04-24T08:09:21;7.75;;;1.13;;
18082;SDS011;9168;51.194;6.840;2023-04-24T08:11:48;4.95;;;1.27;;
18082;SDS011;9168;51.194;6.840;2023-04-24T08:14:15;4.45;;;0.52;;
18082;SDS011;9168;51.194;6.840;2023-04-24T08:16:43;4.10;;;0.63;;
18082;SDS011;9168;51.194;6.840;2023-04-24T08:19:10;2.20;;;0.75;;
18082;SDS011;9168;51.194;6.840;2023-04-24T08:21:37;1.05;;;0.60;;
18082;SDS011;9168;51.194;6.840;2023-04-24T08:24:04;1.98;;;1.08;;
18082;SDS011;9168;51.194;6.840;2023-04-24T08:26:33;4.07;;;1.35;;
18082;SDS011;9168;51.194;6.840;2023-04-24T08:29:00;3.85;;;2.00;;
18082;SDS011;9168;51.194;6.840;2023-04-24T08:31:27;6.45;;;2.42;;
18082;SDS011;9168;51.194;6.840;2023-04-24T08:33:55;6.45;;;2.72;;
18082;SDS011;9168;51.194;6.840;2023-04-24T08:36:22;9.63;;;3.40;;
18082;SDS011;9168;51.194;6.840;2023-04-24T08:38:49;6.47;;;3.47;;
18082;SDS011;9168;51.194;6.840;2023-04-24T08:41:16;9.73;;;4.40;;
18082;SDS011;9168;51.194;6.840;2023-04-24T08:43:45;10.38;;;4.70;;
18082;SDS011;9168;51.194;6.840;2023-04-24T08:46:12;9.07;;;4.72;;
18082;SDS011;9168;51.194;6.840;2023-04-24T08:48:41;7.82;;;4.10;;
18082;SDS011;9168;51.194;6.840;2023-04-24T08:51:10;9.50;;;4.63;;
18082;SDS011;9168;51.194;6.840;2023-04-24T08:53:38;8.30;;;4.00;;
18082;SDS011;9168;51.194;6.840;2023-04-24T08:56:06;14.23;;;4.50;;
18082;SDS011;9168;51.194;6.840;2023-04-24T08:58:33;8.73;;;4.28;;
18082;SDS011;9168;51.194;6.840;2023-04-24T09:01:01;9.05;;;3.95;;
18082;SDS011;9168;51.194;6.840;2023-04-24T09:03:29;8.40;;;3.78;;
18082;SDS011;9168;51.194;6.840;2023-04-24T09:05:57;6.10;;;3.40;;
18082;SDS011;9168;51.194;6.840;2023-04-24T09:08:26;9.77;;;3.17;;
18082;SDS011;9168;51.194;6.840;2023-04-24T09:10:55;8.52;;;2.90;;
18082;SDS011;9168;51.194;6.840;2023-04-24T09:13:23;5.85;;;2.97;;
18082;SDS011;9168;51.194;6.840;2023-04-24T09:15:50;5.28;;;2.50;;
18082;SDS011;9168;51.194;6.840;2023-04-24T09:18:19;4.10;;;2.50;;
18082;SDS011;9168;51.194;6.840;2023-04-24T09:20:59;6.43;;;3.20;;
18082;SDS011;9168;51.194;6.840;2023-04-24T09:23:29;6.78;;;3.10;;
18082;SDS011;9168;51.194;6.840;2023-04-24T09:25:57;6.95;;;3.53;;
18082;SDS011;9168;51.194;6.840;2023-04-24T09:28:26;8.20;;;4.63;;
18082;SDS011;9168;51.194;6.840;2023-04-24T09:31:03;9.23;;;3.80;;
18082;SDS011;9168;51.194;6.840;2023-04-24T09:33:31;7.30;;;4.10;;
18082;SDS011;9168;51.194;6.840;2023-04-24T09:35:58;8.25;;;4.10;;
18082;SDS011;9168;51.194;6.840;2023-04-24T09:38:33;13.65;;;3.80;;
18082;SDS011;9168;51.194;6.840;2023-04-24T09:41:01;9.80;;;4.10;;
18082;SDS011;9168;51.194;6.840;2023-04-24T09:43:29;9.68;;;4.05;;
18082;SDS011;9168;51.194;6.840;2023-04-24T09:45:56;10.95;;;4.10;;
18082;SDS011;9168;51.194;6.840;2023-04-24T09:48:31;10.75;;;4.13;;
18082;SDS011;9168;51.194;6.840;2023-04-24T09:51:00;10.75;;;4.43;;
18082;SDS011;9168;51.194;6.840;2023-04-24T09:53:28;11.60;;;4.68;;
18082;SDS011;9168;51.194;6.840;2023-04-24T09:55:58;12.57;;;5.05;;
18082;SDS011;9168;51.194;6.840;2023-04-24T09:58:29;14.40;;;5.68;;
18082;SDS011;9168;51.194;6.840;2023-04-24T10:00:56;14.45;;;5.20;;
18082;SDS011;9168;51.194;6.840;2023-04-24T10:03:24;26.25;;;7.03;;
18082;SDS011;9168;51.194;6.840;2023-04-24T10:05:54;16.77;;;6.10;;
18082;SDS011;9168;51.194;6.840;2023-04-24T10:08:24;16.92;;;6.30;;
18082;SDS011;9168;51.194;6.840;2023-04-24T10:10:52;14.73;;;6.63;;
18082;SDS011;9168;51.194;6.840;2023-04-24T10:13:20;15.82;;;5.82;;
18082;SDS011;9168;51.194;6.840;2023-04-24T10:15:47;14.65;;;6.43;;
18082;SDS011;9168;51.194;6.840;2023-04-24T10:18:15;14.90;;;6.53;;
18082;SDS011;9168;51.194;6.840;2023-04-24T10:20:42;24.30;;;10.90;;
18082;SDS011;9168;51.194;6.840;2023-04-24T10:23:09;18.17;;;6.82;;
18082;SDS011;9168;51.194;6.840;2023-04-24T10:25:36;15.27;;;7.65;;
18082;SDS011;9168;51.194;6.840;2023-04-24T10:28:04;16.13;;;7.05;;
18082;SDS011;9168;51.194;6.840;2023-04-24T10:30:33;16.75;;;6.55;;
18082;SDS011;9168;51.194;6.840;2023-04-24T10:33:01;19.25;;;6.18;;
18082;SDS011;9168;51.194;6.840;2023-04-24T10:35:30;19.30;;;6.57;;
18082;SDS011;9168;51.194;6.840;2023-04-24T10:37:59;25.65;;;6.63;;
18082;SDS011;9168;51.194;6.840;2023-04-24T10:40:30;18.85;;;5.95;;
18082;SDS011;9168;51.194;6.840;2023-04-24T10:42:59;17.85;;;6.50;;
18082;SDS011;9168;51.194;6.840;2023-04-24T10:45:26;22.75;;;6.05;;
18082;SDS011;9168;51.194;6.840;2023-04-24T10:48:01;21.08;;;6.30;;
18082;SDS011;9168;51.194;6.840;2023-04-24T10:50:42;16.80;;;6.13;;
18082;SDS011;9168;51.194;6.840;2023-04-24T10:53:12;15.82;;;4.82;;
18082;SDS011;9168;51.194;6.840;2023-04-24T10:55:44;15.80;;;5.22;;
18082;SDS011;9168;51.194;6.840;2023-04-24T10:58:13;16.33;;;5.70;;
18082;SDS011;9168;51.194;6.840;2023-04-24T11:00:42;16.00;;;5.60;;
18082;SDS011;9168;51.194;6.840;2023-04-24T11:03:23;16.58;;;5.38;;
18082;SDS011;9168;51.194;6.840;2023-04-24T11:05:52;18.42;;;4.75;;
18082;SDS011;9168;51.194;6.840;2023-04-24T11:08:23;19.00;;;6.03;;
18082;SDS011;9168;51.194;6.840;2023-04-24T11:10:57;16.60;;;5.57;;
18082;SDS011;9168;51.194;6.840;2023-04-24T11:16:32;19.70;;;5.85;;
18082;SDS011;9168;51.194;6.840;2023-04-24T11:19:02;19.15;;;5.38;;
18082;SDS011;9168;51.194;6.840;2023-04-24T11:21:31;16.17;;;4.82;;
18082;SDS011;9168;51.194;6.840;2023-04-24T11:27:07;18.10;;;5.22;;
18082;SDS011;9168;51.194;6.840;2023-04-24T11:29:43;23.20;;;5.50;;
18082;SDS011;9168;51.194;6.840;2023-04-24T11:35:03;22.42;;;5.32;;
18082;SDS011;9168;51.194;6.840;2023-04-24T11:37:35;17.20;;;5.53;;
18082;SDS011;9168;51.194;6.840;2023-04-24T11:40:04;17.75;;;5.18;;
18082;SDS011;9168;51.194;6.840;2023-04-24T11:42:33;17.58;;;5.03;;
18082;SDS011;9168;51.194;6.840;2023-04-24T11:45:01;17.60;;;5.10;;
18082;SDS011;9168;51.194;6.840;2023-04-24T11:47:29;23.77;;;4.95;;
18082;SDS011;9168;51.194;6.840;2023-04-24T11:49:58;19.50;;;5.28;;
18082;SDS011;9168;51.194;6.840;2023-04-24T11:52:26;17.08;;;4.75;;
18082;SDS011;9168;51.194;6.840;2023-04-24T11:54:54;20.05;;;4.55;;
18082;SDS011;9168;51.194;6.840;2023-04-24T11:57:21;16.70;;;4.35;;
18082;SDS011;9168;51.194;6.840;2023-04-24T11:59:51;17.65;;;4.43;;
18082;SDS011;9168;51.194;6.840;2023-04-24T12:02:22;16.02;;;4.30;;
18082;SDS011;9168;51.194;6.840;2023-04-24T12:04:49;19.92;;;4.35;;
18082;SDS011;9168;51.194;6.840;2023-04-24T12:07:16;17.20;;;4.38;;
18082;SDS011;9168;51.194;6.840;2023-04-24T12:09:45;19.10;;;4.88;;
18082;SDS011;9168;51.194;6.840;2023-04-24T12:12:13;20.10;;;4.50;;
18082;SDS011;9168;51.194;6.840;2023-04-24T12:14:42;20.13;;;4.63;;
18082;SDS011;9168;51.194;6.840;2023-04-24T12:17:09;14.13;;;3.67;;
18082;SDS011;9168;51.194;6.840;2023-04-24T12:19:36;22.05;;;4.88;;
18082;SDS011;9168;51.194;6.840;2023-04-24T12:22:04;16.95;;;4.05;;
18082;SDS011;9168;51.194;6.840;2023-04-24T12:24:32;12.00;;;3.38;;
18082;SDS011;9168;51.194;6.840;2023-04-24T12:27:00;15.73;;;3.85;;
18082;SDS011;9168;51.194;6.840;2023-04-24T12:29:27;14.60;;;3.58;;
18082;SDS011;9168;51.194;6.840;2023-04-24T12:31:54;14.90;;;3.15;;
18082;SDS011;9168;51.194;6.840;2023-04-24T12:34:22;13.23;;;3.22;;
18082;SDS011;9168;51.194;6.840;2023-04-24T12:36:50;12.13;;;2.92;;
18082;SDS011;9168;51.194;6.840;2023-04-24T12:39:17;9.52;;;2.60;;
18082;SDS011;9168;51.194;6.840;2023-04-24T12:41:54;9.75;;;2.47;;
18082;SDS011;9168;51.194;6.840;2023-04-24T12:44:34;6.85;;;2.20;;
18082;SDS011;9168;51.194;6.840;2023-04-24T12:47:02;13.02;;;2.58;;
18082;SDS011;9168;51.194;6.840;2023-04-24T12:49:29;9.40;;;2.00;;
18082;SDS011;9168;51.194;6.840;2023-04-24T12:51:56;7.70;;;1.90;;
18082;SDS011;9168;51.194;6.840;2023-04-24T12:54:23;8.40;;;2.38;;
18082;SDS011;9168;51.194;6.840;2023-04-24T12:56:50;8.50;;;1.83;;
18082;SDS011;9168;51.194;6.840;2023-04-24T12:59:17;8.35;;;1.65;;
18082;SDS011;9168;51.194;6.840;2023-04-24T13:01:45;8.10;;;1.90;;
18082;SDS011;9168;51.194;6.840;2023-04-24T13:04:12;3.55;;;1.45;;
18082;SDS011;9168;51.194;6.840;2023-04-24T13:06:39;7.20;;;2.15;;
18082;SDS011;9168;51.194;6.840;2023-04-24T13:09:06;6.93;;;1.45;;
18082;SDS011;9168;51.194;6.840;2023-04-24T13:11:34;7.50;;;1.70;;
18082;SDS011;9168;51.194;6.840;2023-04-24T13:14:01;6.90;;;1.90;;
18082;SDS011;9168;51.194;6.840;2023-04-24T13:16:28;12.43;;;1.92;;
18082;SDS011;9168;51.194;6.840;2023-04-24T13:18:56;9.60;;;1.83;;
18082;SDS011;9168;51.194;6.840;2023-04-24T13:21:23;12.07;;;2.38;;
18082;SDS011;9168;51.194;6.840;2023-04-24T13:23:51;6.07;;;1.67;;
18082;SDS011;9168;51.194;6.840;2023-04-24T13:26:18;8.10;;;1.58;;
18082;SDS011;9168;51.194;6.840;2023-04-24T13:28:45;7.65;;;1.98;;
18082;SDS011;9168;51.194;6.840;2023-04-24T13:31:12;6.80;;;1.48;;
18082;SDS011;9168;51.194;6.840;2023-04-24T13:33:38;6.07;;;1.73;;
18082;SDS011;9168;51.194;6.840;2023-04-24T13:36:07;9.60;;;2.17;;
18082;SDS011;9168;51.194;6.840;2023-04-24T13:38:34;8.10;;;2.03;;
18082;SDS011;9168;51.194;6.840;2023-04-24T13:41:01;6.32;;;1.95;;
18082;SDS011;9168;51.194;6.840;2023-04-24T13:43:28;9.77;;;1.83;;
18082;SDS011;9168;51.194;6.840;2023-04-24T13:45:55;6.97;;;1.95;;
18082;SDS011;9168;51.194;6.840;2023-04-24T13:48:24;8.27;;;1.75;;
18082;SDS011;9168;51.194;6.840;2023-04-24T13:50:51;12.98;;;2.30;;
18082;SDS011;9168;51.194;6.840;2023-04-24T13:53:19;7.22;;;1.85;;
18082;SDS011;9168;51.194;6.840;2023-04-24T13:55:52;11.80;;;1.90;;
18082;SDS011;9168;51.194;6.840;2023-04-24T13:58:19;5.93;;;1.73;;
18082;SDS011;9168;51.194;6.840;2023-04-24T14:00:45;9.77;;;2.03;;
18082;SDS011;9168;51.194;6.840;2023-04-24T14:03:12;8.93;;;2.20;;
18082;SDS011;9168;51.194;6.840;2023-04-24T14:05:40;6.90;;;1.95;;
18082;SDS011;9168;51.194;6.840;2023-04-24T14:08:06;7.15;;;1.83;;
18082;SDS011;9168;51.194;6.840;2023-04-24T14:10:35;6.68;;;1.58;;
18082;SDS011;9168;51.194;6.840;2023-04-24T14:13:02;9.82;;;1.88;;
18082;SDS011;9168;51.194;6.840;2023-04-24T14:15:29;7.72;;;1.45;;
18082;SDS011;9168;51.194;6.840;2023-04-24T14:17:56;12.75;;;1.88;;
18082;SDS011;9168;51.194;6.840;2023-04-24T14:20:23;12.43;;;2.30;;
18082;SDS011;9168;51.194;6.840;2023-04-24T14:22:50;7.35;;;1.60;;
18082;SDS011;9168;51.194;6.840;2023-04-24T14:25:16;11.77;;;1.73;;
18082;SDS011;9168;51.194;6.840;2023-04-24T14:27:45;5.82;;;1.88;;
18082;SDS011;9168;51.194;6.840;2023-04-24T14:30:12;9.27;;;1.73;;
18082;SDS011;9168;51.194;6.840;2023-04-24T14:32:40;7.50;;;1.67;;
18082;SDS011;9168;51.194;6.840;2023-04-24T14:35:07;5.55;;;1.65;;
18082;SDS011;9168;51.194;6.840;2023-04-24T14:37:34;8.52;;;1.63;;
18082;SDS011;9168;51.194;6.840;2023-04-24T14:40:02;9.20;;;1.80;;
18082;SDS011;9168;51.194;6.840;2023-04-24T14:42:29;4.25;;;1.58;;
18082;SDS011;9168;51.194;6.840;2023-04-24T14:44:57;7.93;;;1.60;;
18082;SDS011;9168;51.194;6.840;2023-04-24T14:47:24;9.45;;;1.75;;
18082;SDS011;9168;51.194;6.840;2023-04-24T14:49:51;11.80;;;1.90;;
18082;SDS011;9168;51.194;6.840;2023-04-24T14:52:18;3.47;;;1.38;;
18082;SDS011;9168;51.194;6.840;2023-04-24T14:54:45;8.27;;;2.15;;
18082;SDS011;9168;51.194;6.840;2023-04-24T14:57:12;4.95;;;1.75;;
18082;SDS011;9168;51.194;6.840;2023-04-24T14:59:39;7.65;;;2.00;;
18082;SDS011;9168;51.194;6.840;2023-04-24T15:02:07;5.38;;;1.35;;
18082;SDS011;9168;51.194;6.840;2023-04-24T15:04:34;6.03;;;1.58;;